ADDS METAR Data INFO
IDs: Format: Raw Decoded Include TAF

Data at: 2345 UTC 24 Feb 2018

KDHT 242253Z AUTO 28014G21KT 10SM CLR 11/M24 A2983 RMK AO2 SLP090 T01061244
KDHT 242153Z AUTO 27018G23KT 10SM CLR 11/M22 A2982 RMK AO2 PK WND 28033/2101 SLP084 T01111222
KDHT 242053Z AUTO 27015G27KT 10SM CLR 11/M21 A2982 RMK AO2 PK WND 28028/1958 SLP085 T01111211 55006
KDHT 241953Z AUTO 28018G28KT 10SM CLR 11/M22 A2982 RMK AO2 PK WND 32033/1929 SLP086 T01111222
KDHT 241853Z AUTO 31016G29KT 10SM CLR 10/M17 A2983 RMK AO2 PK WND 28031/1829 SLP090 T01001172
KDHT 241753Z AUTO 30019G29KT 10SM CLR 10/M16 A2984 RMK AO2 PK WND 28034/1739 SLP094 I6001 T01001161 10100 21017 58005
KDHT 241653Z AUTO 26017G21KT 10SM CLR 07/M05 A2985 RMK AO2 SLP099 T00671050
KDHT 241601Z AUTO 23011KT 10SM SCT009 02/M01 A2985 RMK AO2 T00221011
KDHT 241553Z AUTO 26012KT 10SM BKN009 02/M01 A2985 RMK AO2 CIG 006V012 SLP113 T00221011
KDHT 241549Z AUTO 27011KT 10SM FEW006 BKN009 02/M01 A2986 RMK AO2
KDHT 241542Z AUTO 26008KT 10SM FEW006 SCT009 01/M01 A2985 RMK AO2 T00111006
KDHT 241524Z AUTO 24006KT 9SM BKN004 01/00 A2985 RMK AO2 T00060000
KDHT 241514Z AUTO 22007KT 3SM BR OVC003 M01/M01 A2984 RMK AO2 T10061006
KDHT 241453Z AUTO 30004KT 1SM BR OVC003 M01/M01 A2985 RMK AO2 SLP117 I1001 I3001 T10111011 51007
KDHT 241353Z AUTO 05004KT 1/2SM FZFG OVC002 M01/M01 A2982 RMK AO2 SLP104 I1000 T10111011
KDHT 241351Z AUTO 06004KT 3/4SM BR OVC003 M01/M01 A2982 RMK AO2 I1000
KDHT 241339Z AUTO 08006KT 1 1/2SM BR OVC003 M02/M02 A2982 RMK AO2 VIS 3/4V3 I1000 T10171017
KDHT 241325Z AUTO 05005KT 3SM BR OVC003 M02/M02 A2983 RMK AO2 T10171017
KDHT 241301Z AUTO 01007KT 2 1/2SM BR OVC003 M01/M01 A2984 RMK AO2 VIS 1 3/4V3 T10111011
KDHT 241253Z AUTO 01007KT 3SM BR OVC003 M01/M01 A2985 RMK AO2 SLP109 T10111011
KDHT 241238Z AUTO 36009KT 1 3/4SM BR OVC003 M01/M01 A2985 RMK AO2 T10111011
KDHT 241230Z AUTO 01009KT 2SM BR OVC003 M01/M01 A2985 RMK AO2 T10111011
KDHT 241211Z AUTO 01011KT 3SM BR OVC003 M01/M01 A2985 RMK AO2 T10111011
KDHT 241153Z AUTO 36011KT 2SM BR OVC003 M01/M01 A2985 RMK AO2 SLP103 T10061006 10017 21006 53005
KDHT 241128Z AUTO 36015KT 1SM BR VV002 M01/M01 A2985 RMK AO2 T10061006
KDHT 241053Z AUTO 02007KT 1/4SM FG VV002 01/01 A2984 RMK AO2 SLP096 T00110011
KDHT 241034Z AUTO 05007KT 1/4SM FG VV002 01/01 A2984 RMK AO2 T00110011
KDHT 240953Z AUTO 09008KT 1/2SM FG VV002 02/02 A2983 RMK AO2 SLP083 T00170017
KDHT 240949Z AUTO 09006KT 1/2SM FG OVC002 01/01 A2983 RMK AO2
KDHT 240919Z AUTO 06003KT 1 3/4SM BR OVC002 02/02 A2984 RMK AO2 T00170017
KDHT 240909Z AUTO 05005KT 2SM BR OVC002 02/02 A2983 RMK AO2 T00170017
KDHT 240853Z AUTO 06006KT 1 3/4SM BR OVC002 02/02 A2984 RMK AO2 SLP086 T00170017 56008
KDHT 240840Z AUTO 03006KT 4SM BR OVC002 02/02 A2984 RMK AO2 T00170017
KDHT 240833Z AUTO 08006KT 2 1/2SM BR OVC002 02/02 A2983 RMK AO2 T00170017
KDHT 240753Z AUTO 09008KT 1 1/2SM BR OVC002 01/01 A2984 RMK AO2 SLP094 T00110011
KDHT 240731Z AUTO 10008KT 1 3/4SM BR OVC002 01/01 A2986 RMK AO2 T00110011
KDHT 240708Z AUTO 12010KT 3SM BR OVC003 02/02 A2986 RMK AO2 T00170017
KDHT 240653Z AUTO 12008KT 6SM BR OVC004 02/01 A2986 RMK AO2 SLP104 T00170011
KDHT 240616Z AUTO 12010KT 6SM BR OVC004 02/01 A2987 RMK AO2 T00170011
KDHT 240553Z AUTO 12010KT 6SM BR OVC005 02/01 A2988 RMK AO2 SLP113 T00170011 10078 21006 401561111 56006
KDHT 240453Z AUTO 12014KT 9SM OVC007 03/02 A2989 RMK AO2 SLP120 T00280017
KDHT 240353Z AUTO 09013KT 10SM OVC008 01/M01 A2989 RMK AO2 SLP122 T00061006
KDHT 240342Z AUTO 09015KT 10SM OVC009 01/M01 A2989 RMK AO2 T00061011
KDHT 240326Z AUTO 08014KT 10SM BKN010 00/M01 A2990 RMK AO2 T00001011
KDHT 240253Z AUTO 08012KT 10SM CLR 00/M02 A2990 RMK AO2 SLP141 T00001017 58002
KDHT 240153Z AUTO 09012KT 10SM CLR 03/M01 A2992 RMK AO2 SLP149 T00281006
KDHT 240053Z AUTO 10014KT 10SM CLR 05/00 A2991 RMK AO2 SLP146 T00500000
KDHT 232353Z AUTO 10016KT 10SM CLR 08/01 A2991 RMK AO2 PK WND 11026/2255 SLP133 T00780006 10156 20072 55015
KDHT 232253Z AUTO 10022KT 10SM CLR 11/M02 A2990 RMK AO2 PK WND 11028/2251 SLP127 T01111017
KDHT 232153Z AUTO 15012KT 10SM CLR 16/M07 A2991 RMK AO2 SLP121 T01561067
KDHT 232053Z AUTO 16007G20KT 130V200 10SM CLR 14/M09 A2996 RMK AO2 SLP135 T01441089 58037
KDHT 231953Z AUTO 10011KT 10SM CLR 11/M06 A3000 RMK AO2 SLP162 T01111061
KDHT 231853Z AUTO 09009KT 10SM CLR 09/M07 A3005 RMK AO2 SLP178 T00891067
KDHT 231753Z AUTO 05004KT 10SM CLR 07/M07 A3008 RMK AO2 SLP186 60000 T00671072 10072 21111 56013
KDHT 231653Z AUTO 05009KT 10SM CLR 04/M08 A3009 RMK AO2 SLP194 T00391083
KDHT 231553Z AUTO 07005KT 10SM CLR 04/M07 A3011 RMK AO2 SNB19E33 SLP191 P0000 T00391072
KDHT 231453Z AUTO 00000KT 10SM CLR M03/M11 A3012 RMK AO2 SLP211 T10331106 53015
KDHT 231353Z AUTO 32006KT 10SM CLR M08/M12 A3010 RMK AO2 SLP207 T10831117
KDHT 231253Z AUTO 17005KT 10SM CLR M11/M13 A3008 RMK AO2 SLP201 T11111133
KDHT 231153Z AUTO 00000KT 10SM CLR M06/M11 A3007 RMK AO2 SLP183 T10611111 10000 21078 55005